createdAt,value
2022-09-29T04:52:16.470Z,9.70
2022-09-29T04:54:43.195Z,9.70
2022-09-29T04:57:22.239Z,9.70
2022-09-29T04:59:51.794Z,9.70
2022-09-29T05:02:24.882Z,9.70
2022-09-29T05:04:51.601Z,9.70
2022-09-29T05:07:18.405Z,9.70
2022-09-29T05:09:45.115Z,9.70
2022-09-29T05:12:11.843Z,9.70
2022-09-29T05:14:38.658Z,9.70
2022-09-29T05:17:05.457Z,9.70
2022-09-29T05:19:32.227Z,9.80
2022-09-29T05:21:59.531Z,9.70
2022-09-29T05:24:26.914Z,9.80
2022-09-29T05:26:58.180Z,9.80
2022-09-29T05:29:25.527Z,9.70
2022-09-29T05:31:52.361Z,9.70
2022-09-29T05:34:19.146Z,9.70
2022-09-29T05:36:46.056Z,9.70
2022-09-29T05:39:12.925Z,9.80
2022-09-29T05:41:39.667Z,9.70
2022-09-29T05:44:06.518Z,9.70
2022-09-29T05:46:33.241Z,9.80
2022-09-29T05:49:00.130Z,9.80
2022-09-29T05:51:27.021Z,9.80
2022-09-29T05:53:54.185Z,9.80
2022-09-29T05:56:25.695Z,9.80
2022-09-29T05:58:52.654Z,9.90
2022-09-29T06:01:21.342Z,9.80
2022-09-29T06:03:48.281Z,9.90
2022-09-29T06:06:17.059Z,9.80
2022-09-29T06:08:44.112Z,9.90
2022-09-29T06:11:21.419Z,9.90
2022-09-29T06:13:49.246Z,9.90
2022-09-29T06:16:17.137Z,9.80
2022-09-29T06:18:44.071Z,9.80
2022-09-29T06:21:12.337Z,9.80
2022-09-29T06:23:39.122Z,9.70
2022-09-29T06:26:11.999Z,9.70
2022-09-29T06:28:38.925Z,9.70
2022-09-29T06:31:07.296Z,9.70
2022-09-29T06:33:34.761Z,9.90
2022-09-29T06:36:25.711Z,9.80
2022-09-29T06:38:52.429Z,9.80
2022-09-29T06:41:19.642Z,9.90
2022-09-29T06:43:46.480Z,10.00
2022-09-29T06:46:13.301Z,10.00
2022-09-29T06:48:40.062Z,10.10
2022-09-29T06:51:10.346Z,10.20
2022-09-29T06:53:38.878Z,10.40
2022-09-29T06:56:06.361Z,10.50
2022-09-29T06:58:34.060Z,10.70
2022-09-29T07:01:01.998Z,10.80
2022-09-29T07:03:29.674Z,11.00
2022-09-29T07:06:18.379Z,11.00
2022-09-29T07:08:43.247Z,11.20
2022-09-29T07:11:10.718Z,11.40
2022-09-29T07:13:37.780Z,11.40
2022-09-29T07:16:08.696Z,11.50
2022-09-29T07:18:37.648Z,11.70
2022-09-29T07:21:11.573Z,11.70
2022-09-29T07:23:38.830Z,11.80
2022-09-29T07:26:06.363Z,12.00
2022-09-29T07:28:33.163Z,12.00
2022-09-29T07:31:22.082Z,12.00
2022-09-29T07:33:50.407Z,12.20
2022-09-29T07:36:18.359Z,12.20
2022-09-29T07:38:49.025Z,12.20
2022-09-29T07:41:15.786Z,12.40
2022-09-29T07:43:42.559Z,12.40
2022-09-29T07:46:09.448Z,12.50
2022-09-29T07:48:36.596Z,12.50
2022-09-29T07:51:14.021Z,12.60
2022-09-29T07:53:40.862Z,12.80
2022-09-29T07:56:09.402Z,12.80
2022-09-29T07:58:36.360Z,12.70
2022-09-29T08:01:05.396Z,12.90
2022-09-29T08:03:33.062Z,12.80
2022-09-29T08:05:59.902Z,12.90
2022-09-29T08:08:27.167Z,12.90
2022-09-29T08:11:02.034Z,12.90
2022-09-29T08:13:29.846Z,12.90
2022-09-29T08:16:00.198Z,12.90
2022-09-29T08:18:28.013Z,13.10
2022-09-29T08:20:55.878Z,13.20
2022-09-29T08:23:24.618Z,13.50
2022-09-29T08:26:01.737Z,13.70
2022-09-29T08:28:32.506Z,14.00
2022-09-29T08:31:07.364Z,14.30
2022-09-29T08:33:34.362Z,14.60
2022-09-29T08:36:01.559Z,14.60
2022-09-29T08:38:28.315Z,14.80
2022-09-29T08:40:55.626Z,14.90
2022-09-29T08:43:34.943Z,15.10
2022-09-29T08:46:11.780Z,15.30
2022-09-29T08:48:54.124Z,15.40
2022-09-29T08:51:42.488Z,15.60
2022-09-29T08:54:39.516Z,15.70
2022-09-29T08:57:07.391Z,15.80
2022-09-29T08:59:34.174Z,15.90
2022-09-29T09:02:34.826Z,15.90
2022-09-29T09:05:07.799Z,15.90
2022-09-29T09:07:53.214Z,15.70
2022-09-29T09:10:57.610Z,15.60
2022-09-29T09:13:49.860Z,15.50
2022-09-29T09:16:21.260Z,15.50
2022-09-29T09:19:31.989Z,15.50
2022-09-29T09:22:24.908Z,15.60
2022-09-29T09:25:04.183Z,15.70
2022-09-29T09:27:35.531Z,15.90
2022-09-29T09:30:07.039Z,16.10
2022-09-29T09:32:38.072Z,16.20
2022-09-29T09:35:24.466Z,16.30
2022-09-29T09:37:51.533Z,16.30
2022-09-29T09:40:21.142Z,16.30
2022-09-29T09:42:52.731Z,16.40
2022-09-29T09:45:28.466Z,16.40
2022-09-29T09:48:13.843Z,16.40
2022-09-29T09:50:43.016Z,16.30
2022-09-29T09:53:21.162Z,16.40
2022-09-29T09:56:03.870Z,16.40
2022-09-29T09:58:51.778Z,16.40
2022-09-29T10:01:18.736Z,16.40
2022-09-29T10:03:45.630Z,16.50
2022-09-29T10:06:12.465Z,16.60
2022-09-29T10:08:40.275Z,16.80
2022-09-29T10:11:23.215Z,16.80
2022-09-29T10:14:09.314Z,17.10
2022-09-29T10:16:42.527Z,17.40
2022-09-29T10:19:10.459Z,17.80
2022-09-29T10:21:40.979Z,18.10
2022-09-29T10:24:21.361Z,18.40
2022-09-29T10:26:48.630Z,18.60
2022-09-29T10:29:25.686Z,18.50
2022-09-29T10:32:21.482Z,18.40
2022-09-29T10:35:02.092Z,18.40
2022-09-29T10:37:39.125Z,18.40
2022-09-29T10:40:08.997Z,18.40
2022-09-29T10:42:36.824Z,18.60
2022-09-29T10:45:15.995Z,18.90
2022-09-29T10:48:06.449Z,18.90
2022-09-29T10:50:47.743Z,18.60
2022-09-29T10:53:43.664Z,18.20
2022-09-29T10:56:21.161Z,17.80
2022-09-29T10:59:05.765Z,17.30
2022-09-29T11:01:34.822Z,17.00
2022-09-29T11:04:07.005Z,16.70
2022-09-29T11:06:42.950Z,16.60
2022-09-29T11:09:13.790Z,16.50
2022-09-29T11:11:46.806Z,16.30
2022-09-29T11:14:32.793Z,16.30
2022-09-29T11:17:01.150Z,16.30
2022-09-29T11:19:29.608Z,16.30
2022-09-29T11:22:18.891Z,16.30
2022-09-29T11:24:58.111Z,16.20
2022-09-29T11:27:50.013Z,16.20
2022-09-29T11:30:21.373Z,16.10
2022-09-29T11:33:01.272Z,16.00
2022-09-29T11:35:40.053Z,15.90
2022-09-29T11:38:20.182Z,15.60
2022-09-29T11:41:09.264Z,15.50
2022-09-29T11:43:45.724Z,15.30
2022-09-29T11:46:38.354Z,15.20
2022-09-29T11:49:09.134Z,15.20
2022-09-29T11:52:03.759Z,15.20
2022-09-29T11:54:30.540Z,15.20
2022-09-29T11:57:28.500Z,15.20
2022-09-29T12:00:07.856Z,15.20
2022-09-29T12:03:13.217Z,15.30
2022-09-29T12:06:21.160Z,15.40
2022-09-29T12:09:12.974Z,15.60
2022-09-29T12:11:54.970Z,15.80
2022-09-29T12:15:14.713Z,15.90
2022-09-29T12:17:47.324Z,16.00
2022-09-29T12:20:26.476Z,16.10
2022-09-29T12:22:54.685Z,16.20
2022-09-29T12:25:26.146Z,16.30
2022-09-29T12:27:59.231Z,16.40
2022-09-29T12:30:30.060Z,16.60
2022-09-29T12:33:14.125Z,16.80
2022-09-29T12:36:27.401Z,17.00
2022-09-29T12:38:54.783Z,17.10
2022-09-29T12:41:27.002Z,17.00
2022-09-29T12:43:59.608Z,17.00
2022-09-29T12:46:58.828Z,17.10
2022-09-29T12:49:40.189Z,17.10
2022-09-29T12:52:15.738Z,17.10
2022-09-29T12:54:47.137Z,17.20
2022-09-29T12:57:19.190Z,17.20
2022-09-29T13:00:05.675Z,17.20
2022-09-29T13:03:21.996Z,17.00
2022-09-29T13:06:19.188Z,16.70
2022-09-29T13:09:15.300Z,16.50
2022-09-29T13:11:47.773Z,16.30
2022-09-29T13:14:27.362Z,16.20
2022-09-29T13:17:12.707Z,16.10
2022-09-29T13:19:57.272Z,16.00
2022-09-29T13:22:27.474Z,16.00
2022-09-29T13:25:28.408Z,15.90
2022-09-29T13:27:55.430Z,15.80
2022-09-29T13:30:25.222Z,15.80
2022-09-29T13:33:13.627Z,15.80
2022-09-29T13:35:44.948Z,15.80
2022-09-29T13:38:26.774Z,15.80
2022-09-29T13:41:22.502Z,15.80
2022-09-29T13:43:52.305Z,15.80
2022-09-29T13:46:31.069Z,15.80
2022-09-29T13:49:12.702Z,15.90
2022-09-29T13:51:52.586Z,15.80
2022-09-29T13:54:39.459Z,15.70
2022-09-29T13:57:11.998Z,15.60
2022-09-29T13:59:55.019Z,15.60
2022-09-29T14:02:35.321Z,15.50
2022-09-29T14:05:03.185Z,15.50
2022-09-29T14:07:56.107Z,15.50
2022-09-29T14:11:07.512Z,15.40
2022-09-29T14:13:39.636Z,15.50
2022-09-29T14:16:25.006Z,15.50
2022-09-29T14:19:16.391Z,15.60
2022-09-29T14:21:48.887Z,15.60
2022-09-29T14:24:42.231Z,15.60
2022-09-29T14:27:32.137Z,15.50
2022-09-29T14:30:14.156Z,15.70
2022-09-29T14:32:47.946Z,15.50
2022-09-29T14:35:23.482Z,15.40
2022-09-29T14:38:03.949Z,15.40
2022-09-29T14:40:30.972Z,15.30
2022-09-29T14:43:12.537Z,15.30
2022-09-29T14:46:03.997Z,15.30
2022-09-29T14:49:15.127Z,15.30
2022-09-29T14:52:14.398Z,15.40
2022-09-29T14:54:57.017Z,15.50
2022-09-29T14:58:00.760Z,15.40
2022-09-29T15:01:16.969Z,15.40
2022-09-29T15:03:48.606Z,15.40
2022-09-29T15:06:20.717Z,15.40
2022-09-29T15:08:57.737Z,15.30
2022-09-29T15:11:37.311Z,15.20
2022-09-29T15:14:23.970Z,15.10
2022-09-29T15:17:31.616Z,15.10
2022-09-29T15:20:22.864Z,15.00
2022-09-29T15:23:00.595Z,14.90
2022-09-29T15:25:40.831Z,14.90
2022-09-29T15:28:32.119Z,14.90
2022-09-29T15:31:02.572Z,14.90
2022-09-29T15:33:35.661Z,14.90
2022-09-29T15:36:06.095Z,15.00
2022-09-29T15:38:34.638Z,14.90
2022-09-29T15:41:14.034Z,14.90
2022-09-29T15:43:54.345Z,14.80
2022-09-29T15:46:23.231Z,14.70
2022-09-29T15:49:18.360Z,14.60
2022-09-29T15:52:06.506Z,14.60
2022-09-29T15:57:22.934Z,14.50
2022-09-29T15:59:54.387Z,14.40
2022-09-29T16:02:31.458Z,14.30
2022-09-29T16:05:03.659Z,14.30
2022-09-29T16:07:38.455Z,14.20
2022-09-29T16:10:14.144Z,14.20
2022-09-29T16:12:58.803Z,14.10
2022-09-29T16:15:33.817Z,14.10
2022-09-29T16:18:08.303Z,14.10
2022-09-29T16:20:35.370Z,14.00
2022-09-29T16:23:09.490Z,14.00
2022-09-29T16:25:36.350Z,14.00
2022-09-29T16:28:07.297Z,14.10
2022-09-29T16:30:39.007Z,14.00
2022-09-29T16:33:35.802Z,14.00
2022-09-29T16:36:32.326Z,13.90
2022-09-29T16:38:59.237Z,13.90
2022-09-29T16:41:36.736Z,13.90
2022-09-29T16:44:17.284Z,13.90
2022-09-29T16:47:02.525Z,13.80
2022-09-29T16:49:36.480Z,13.80
2022-09-29T16:52:17.219Z,13.80
2022-09-29T16:54:44.863Z,13.80
2022-09-29T16:57:25.286Z,13.80
2022-09-29T17:00:04.452Z,13.80
2022-09-29T17:02:31.261Z,13.70
2022-09-29T17:04:58.131Z,13.70
2022-09-29T17:07:26.519Z,13.70
2022-09-29T17:09:57.725Z,13.80
2022-09-29T17:12:25.221Z,13.70
2022-09-29T17:14:52.041Z,13.70
2022-09-29T17:17:23.250Z,13.60
2022-09-29T17:19:50.813Z,13.60
2022-09-29T17:22:30.483Z,13.60
2022-09-29T17:24:57.963Z,13.70
2022-09-29T17:27:43.603Z,13.60
2022-09-29T17:30:11.085Z,13.60
2022-09-29T17:32:38.944Z,13.60
2022-09-29T17:35:07.672Z,13.60
2022-09-29T17:37:34.852Z,13.60
2022-09-29T17:40:03.387Z,13.60
2022-09-29T17:42:30.134Z,13.50
2022-09-29T17:44:57.744Z,13.50
2022-09-29T17:47:28.325Z,13.40
2022-09-29T17:49:56.518Z,13.40
2022-09-29T17:52:25.767Z,13.30
2022-09-29T17:54:52.604Z,13.20
2022-09-29T17:57:22.355Z,13.10
2022-09-29T17:59:49.215Z,13.00
2022-09-29T18:02:16.816Z,13.00
2022-09-29T18:04:48.318Z,12.80
2022-09-29T18:07:16.145Z,12.80
2022-09-29T18:09:43.158Z,12.70
2022-09-29T18:12:10.032Z,12.70
2022-09-29T18:14:38.960Z,12.50
2022-09-29T18:17:05.843Z,12.50
2022-09-29T18:19:35.847Z,12.40
2022-09-29T18:22:06.093Z,12.40
2022-09-29T18:24:33.886Z,12.30
2022-09-29T18:27:00.759Z,12.20
2022-09-29T18:29:27.678Z,12.20
2022-09-29T18:31:56.032Z,12.10
2022-09-29T18:34:23.463Z,12.20
2022-09-29T18:36:50.427Z,12.10
2022-09-29T18:39:17.360Z,12.20
2022-09-29T18:41:44.129Z,12.20
2022-09-29T18:44:17.016Z,12.20
2022-09-29T18:46:44.557Z,12.20
2022-09-29T18:49:13.051Z,12.20
2022-09-29T18:51:39.851Z,12.30
2022-09-29T18:54:07.712Z,12.30
2022-09-29T18:56:34.559Z,12.30
2022-09-29T18:59:02.042Z,12.30
2022-09-29T19:01:30.017Z,12.30
2022-09-29T19:03:57.213Z,12.30
2022-09-29T19:06:24.066Z,12.30
2022-09-29T19:08:52.316Z,12.30
2022-09-29T19:11:20.438Z,12.40
2022-09-29T19:13:47.769Z,12.30
2022-09-29T19:16:15.983Z,12.40
2022-09-29T19:18:43.032Z,12.30
2022-09-29T19:21:12.057Z,12.30
2022-09-29T19:23:39.105Z,12.20
2022-09-29T19:26:15.561Z,12.20
2022-09-29T19:28:42.470Z,12.20
2022-09-29T19:31:11.757Z,12.20
2022-09-29T19:33:39.441Z,12.20
2022-09-29T19:36:08.758Z,12.10
2022-09-29T19:38:36.510Z,12.10
2022-09-29T19:41:04.537Z,12.10
2022-09-29T19:43:31.632Z,12.10
2022-09-29T19:45:58.532Z,12.10
2022-09-29T19:48:25.535Z,12.00
2022-09-29T19:51:16.838Z,12.00
2022-09-29T19:53:47.179Z,12.00
2022-09-29T19:56:16.767Z,12.00
2022-09-29T19:58:43.635Z,12.00
2022-09-29T20:01:11.226Z,12.00
2022-09-29T20:03:38.047Z,12.00
2022-09-29T20:06:06.603Z,12.00
2022-09-29T20:08:34.867Z,12.00
2022-09-29T20:11:08.967Z,12.00
2022-09-29T20:13:35.825Z,11.90
2022-09-29T20:16:03.259Z,11.90
2022-09-29T20:18:30.019Z,11.90
2022-09-29T20:20:56.814Z,11.80
2022-09-29T20:23:24.299Z,11.80
2022-09-29T20:25:59.632Z,11.90
2022-09-29T20:28:26.538Z,11.90
2022-09-29T20:30:59.741Z,11.80
2022-09-29T20:33:26.766Z,11.80
2022-09-29T20:35:53.727Z,11.80
2022-09-29T20:38:20.606Z,11.90
2022-09-29T20:40:48.974Z,11.90
2022-09-29T20:43:20.063Z,11.90
2022-09-29T20:45:46.991Z,11.90
2022-09-29T20:48:19.746Z,11.90
2022-09-29T20:50:49.173Z,11.90
2022-09-29T20:53:26.866Z,11.90
2022-09-29T20:56:22.998Z,11.90
2022-09-29T20:58:56.820Z,11.90
2022-09-29T21:01:31.625Z,12.00
2022-09-29T21:03:59.956Z,12.00
2022-09-29T21:06:31.189Z,12.00
2022-09-29T21:09:04.482Z,12.00
2022-09-29T21:11:37.994Z,12.10
2022-09-29T21:14:08.772Z,12.10
2022-09-29T21:16:44.005Z,12.10
2022-09-29T21:19:29.359Z,12.20
2022-09-29T21:21:56.391Z,12.20
2022-09-29T21:24:29.348Z,12.20
2022-09-29T21:26:56.614Z,12.20
2022-09-29T21:29:24.073Z,12.20
2022-09-29T21:31:51.127Z,12.20
2022-09-29T21:34:18.082Z,12.20
2022-09-29T21:36:44.879Z,12.30
2022-09-29T21:39:11.903Z,12.30
2022-09-29T21:41:40.959Z,12.30
2022-09-29T21:44:12.918Z,12.30
2022-09-29T21:46:40.162Z,12.30
2022-09-29T21:49:08.467Z,12.30
2022-09-29T21:51:44.387Z,12.30
2022-09-29T21:54:15.876Z,12.30
2022-09-29T21:56:43.460Z,12.30
2022-09-29T21:59:10.793Z,12.30
2022-09-29T22:01:53.329Z,12.30
2022-09-29T22:04:20.629Z,12.30
2022-09-29T22:06:47.804Z,12.30
2022-09-29T22:09:18.891Z,12.30
2022-09-29T22:11:45.838Z,12.30
2022-09-29T22:14:13.744Z,12.20
2022-09-29T22:16:40.582Z,12.20
2022-09-29T22:19:33.567Z,12.20
2022-09-29T22:21:54.530Z,12.20
2022-09-29T22:24:21.393Z,12.20
2022-09-29T22:26:48.202Z,12.20
2022-09-29T22:29:15.038Z,12.20
2022-09-29T22:31:42.004Z,12.20
2022-09-29T22:34:08.889Z,12.20
2022-09-29T22:36:35.769Z,12.20
2022-09-29T22:39:03.608Z,12.30
2022-09-29T22:41:30.467Z,12.30
2022-09-29T22:43:59.034Z,12.30
2022-09-29T22:46:26.966Z,12.30
2022-09-29T22:48:53.775Z,12.30
2022-09-29T22:51:23.469Z,12.40
2022-09-29T22:53:50.304Z,12.40
2022-09-29T22:56:19.321Z,12.40
2022-09-29T22:58:46.185Z,12.50
2022-09-29T23:01:14.537Z,12.50
2022-09-29T23:03:42.417Z,12.50
2022-09-29T23:06:09.422Z,12.50
2022-09-29T23:08:36.326Z,12.60
2022-09-29T23:11:06.545Z,12.60
2022-09-29T23:13:34.566Z,12.60
2022-09-29T23:16:09.566Z,12.60
2022-09-29T23:18:44.097Z,12.50
2022-09-29T23:21:12.467Z,12.50
2022-09-29T23:23:39.312Z,12.50
2022-09-29T23:26:06.255Z,12.50
2022-09-29T23:28:33.050Z,12.50
2022-09-29T23:31:04.581Z,12.50
2022-09-29T23:33:31.490Z,12.60
2022-09-29T23:36:13.592Z,12.50
2022-09-29T23:39:00.543Z,12.50
2022-09-29T23:41:27.947Z,12.50
2022-09-29T23:43:57.899Z,12.50
2022-09-29T23:46:25.199Z,12.50
2022-09-29T23:48:52.015Z,12.50
2022-09-29T23:51:19.027Z,12.50
2022-09-29T23:53:45.909Z,12.50
2022-09-29T23:56:12.702Z,12.60
2022-09-29T23:58:39.511Z,12.60
